createdAt,value
2022-08-03T00:02:52.248Z,19.32
2022-08-03T00:06:03.903Z,19.34
2022-08-03T00:09:12.595Z,19.37
2022-08-03T00:12:18.286Z,19.42
2022-08-03T00:15:24.021Z,19.41
2022-08-03T00:18:31.102Z,19.36
2022-08-03T00:21:35.993Z,19.32
2022-08-03T00:24:42.645Z,19.28
2022-08-03T00:27:48.326Z,19.23
2022-08-03T00:30:53.418Z,19.30
2022-08-03T00:34:03.168Z,19.23
2022-08-03T00:37:08.677Z,19.25
2022-08-03T00:40:16.960Z,19.22
2022-08-03T00:43:26.726Z,19.18
2022-08-03T00:46:31.887Z,19.14
2022-08-03T00:49:37.759Z,19.15
2022-08-03T00:52:43.272Z,19.13
2022-08-03T00:55:50.276Z,18.98
2022-08-03T00:58:57.931Z,18.98
2022-08-03T01:02:02.915Z,18.97
2022-08-03T01:05:08.700Z,18.90
2022-08-03T01:08:24.170Z,18.89
2022-08-03T01:11:59.973Z,18.90
2022-08-03T01:15:14.163Z,18.83
2022-08-03T01:18:23.365Z,18.73
2022-08-03T01:21:32.839Z,18.83
2022-08-03T01:24:49.595Z,18.85
2022-08-03T01:28:05.977Z,18.80
2022-08-03T01:31:18.113Z,18.76
2022-08-03T01:34:25.832Z,18.72
2022-08-03T01:37:36.308Z,18.78
2022-08-03T01:40:46.998Z,18.72
2022-08-03T01:44:30.209Z,18.71
2022-08-03T01:47:23.468Z,18.64
2022-08-03T01:50:31.887Z,18.68
2022-08-03T01:53:38.051Z,18.72
2022-08-03T01:56:49.040Z,18.77
2022-08-03T01:59:58.175Z,18.78
2022-08-03T02:03:06.817Z,18.76
2022-08-03T02:06:58.930Z,18.75
2022-08-03T02:09:40.972Z,18.76
2022-08-03T02:12:51.084Z,18.71
2022-08-03T02:15:57.980Z,18.69
2022-08-03T02:19:07.436Z,18.67
2022-08-03T02:22:14.953Z,18.64
2022-08-03T02:25:20.651Z,18.63
2022-08-03T02:28:36.024Z,18.60
2022-08-03T02:31:44.627Z,18.57
2022-08-03T02:34:54.117Z,18.49
2022-08-03T02:38:03.231Z,18.52
2022-08-03T02:41:14.706Z,18.55
2022-08-03T02:44:28.551Z,18.49
2022-08-03T02:47:53.986Z,18.60
2022-08-03T02:51:03.895Z,18.60
2022-08-03T02:54:10.590Z,18.50
2022-08-03T02:57:16.977Z,18.50
2022-08-03T03:00:28.064Z,18.44
2022-08-03T03:03:38.605Z,18.49
2022-08-03T03:06:53.499Z,18.44
2022-08-03T03:10:02.775Z,18.43
2022-08-03T03:13:09.587Z,18.37
2022-08-03T03:16:16.442Z,18.33
2022-08-03T03:19:22.728Z,18.23
2022-08-03T03:22:32.028Z,18.20
2022-08-03T03:25:37.714Z,18.14
2022-08-03T03:28:44.910Z,18.25
2022-08-03T03:31:50.726Z,18.26
2022-08-03T03:34:59.197Z,18.24
2022-08-03T03:38:05.982Z,18.19
2022-08-03T03:41:11.511Z,18.17
2022-08-03T03:44:17.253Z,18.14
2022-08-03T03:47:32.119Z,18.10
2022-08-03T03:50:40.847Z,18.05
2022-08-03T03:53:58.059Z,18.05
2022-08-03T03:57:04.730Z,18.00
2022-08-03T04:00:11.150Z,18.01
2022-08-03T04:03:16.595Z,17.99
2022-08-03T04:06:39.167Z,18.01
2022-08-03T04:10:08.936Z,17.98
2022-08-03T04:13:23.020Z,18.00
2022-08-03T04:16:32.380Z,18.04
2022-08-03T04:19:41.242Z,18.01
2022-08-03T04:22:49.043Z,18.02
2022-08-03T04:25:58.766Z,18.06
2022-08-03T04:29:06.209Z,18.08
2022-08-03T04:32:13.237Z,18.08
2022-08-03T04:35:19.727Z,18.01
2022-08-03T04:38:26.593Z,18.10
2022-08-03T04:41:33.449Z,18.08
2022-08-03T04:45:01.647Z,18.07
2022-08-03T04:48:07.203Z,18.06
2022-08-03T04:51:13.263Z,18.13
2022-08-03T04:54:18.598Z,18.19
2022-08-03T04:57:25.631Z,18.26
2022-08-03T05:00:31.516Z,18.27
2022-08-03T05:03:36.771Z,18.28
2022-08-03T05:06:48.015Z,18.36
2022-08-03T05:10:01.339Z,18.35
2022-08-03T05:13:11.999Z,18.39
2022-08-03T05:16:17.279Z,18.47
2022-08-03T05:19:22.188Z,18.54
2022-08-03T05:22:27.357Z,18.68
2022-08-03T05:25:32.549Z,18.82
2022-08-03T05:28:39.477Z,18.89
2022-08-03T05:31:56.814Z,19.01
2022-08-03T05:36:00.903Z,19.21
2022-08-03T05:38:28.748Z,19.38
2022-08-03T05:41:40.316Z,19.48
2022-08-03T05:44:47.061Z,19.67
2022-08-03T05:47:52.634Z,19.81
2022-08-03T05:50:58.163Z,19.98
2022-08-03T05:54:02.939Z,20.02
2022-08-03T05:57:08.510Z,20.10
2022-08-03T06:00:16.036Z,20.31
2022-08-03T06:03:21.942Z,20.48
2022-08-03T06:06:32.101Z,20.67
2022-08-03T06:10:35.711Z,20.59
2022-08-03T06:13:02.915Z,20.47
2022-08-03T06:16:09.416Z,20.78
2022-08-03T06:19:14.681Z,21.03
2022-08-03T06:22:19.747Z,21.44
2022-08-03T06:25:26.920Z,21.48
2022-08-03T06:28:51.453Z,21.55
2022-08-03T06:31:59.198Z,21.75
2022-08-03T06:35:05.324Z,21.87
2022-08-03T06:38:10.342Z,21.83
2022-08-03T06:41:16.147Z,22.11
2022-08-03T06:44:21.468Z,21.99
2022-08-03T06:47:28.332Z,22.15
2022-08-03T06:50:34.279Z,22.28
2022-08-03T06:53:39.959Z,22.40
2022-08-03T06:56:44.873Z,22.52
2022-08-03T07:00:09.847Z,22.65
2022-08-03T07:03:17.241Z,22.67
2022-08-03T07:06:22.329Z,22.72
2022-08-03T07:09:28.094Z,22.91
2022-08-03T07:12:33.850Z,23.20
2022-08-03T07:15:55.684Z,23.06
2022-08-03T07:19:02.615Z,22.87
2022-08-03T07:22:08.778Z,23.06
2022-08-03T07:25:14.345Z,23.10
2022-08-03T07:28:19.765Z,23.39
2022-08-03T07:31:25.166Z,23.66
2022-08-03T07:34:32.324Z,23.72
2022-08-03T07:37:37.950Z,23.66
2022-08-03T07:40:46.176Z,23.79
2022-08-03T07:43:51.917Z,23.86
2022-08-03T07:46:57.918Z,24.07
2022-08-03T07:50:08.545Z,24.40
2022-08-03T07:53:13.884Z,24.34
2022-08-03T07:56:19.656Z,24.13
2022-08-03T07:59:25.223Z,24.59
2022-08-03T08:02:30.464Z,24.82
2022-08-03T08:05:37.253Z,24.50
2022-08-03T08:08:43.124Z,24.77
2022-08-03T08:11:47.819Z,25.12
2022-08-03T08:14:52.853Z,25.40
2022-08-03T08:18:00.112Z,24.95
2022-08-03T08:21:06.807Z,25.51
2022-08-03T08:24:18.088Z,25.41
2022-08-03T08:27:23.589Z,25.72
2022-08-03T08:30:29.319Z,25.93
2022-08-03T08:34:02.485Z,25.88
2022-08-03T08:37:03.857Z,26.25
2022-08-03T08:40:10.410Z,25.97
2022-08-03T08:43:15.726Z,25.91
2022-08-03T08:46:22.786Z,26.42
2022-08-03T08:49:30.338Z,25.78
2022-08-03T08:52:37.657Z,26.32
2022-08-03T08:55:58.789Z,26.27
2022-08-03T08:59:05.975Z,26.84
2022-08-03T09:02:11.369Z,26.75
2022-08-03T09:05:18.602Z,26.95
2022-08-03T09:08:25.312Z,27.03
2022-08-03T09:11:51.629Z,26.63
2022-08-03T09:15:15.907Z,26.42
2022-08-03T09:18:32.827Z,26.84
2022-08-03T09:21:38.392Z,27.29
2022-08-03T09:25:22.933Z,27.41
2022-08-03T09:29:00.060Z,27.25
2022-08-03T09:31:49.123Z,27.16
2022-08-03T09:34:58.141Z,26.98
2022-08-03T09:38:14.657Z,27.60
2022-08-03T09:41:21.454Z,27.62
2022-08-03T09:44:35.269Z,27.82
2022-08-03T09:47:45.011Z,27.86
2022-08-03T09:50:58.749Z,27.85
2022-08-03T09:54:27.662Z,28.11
2022-08-03T09:57:34.573Z,28.22
2022-08-03T10:00:54.881Z,27.78
2022-08-03T10:04:04.111Z,28.28
2022-08-03T10:07:11.282Z,28.37
2022-08-03T10:10:28.817Z,28.64
2022-08-03T10:13:39.206Z,28.14
2022-08-03T10:16:50.051Z,28.33
2022-08-03T10:19:57.323Z,28.41
2022-08-03T10:23:03.811Z,28.92
2022-08-03T10:26:14.073Z,28.61
2022-08-03T10:29:25.471Z,28.66
2022-08-03T10:32:32.856Z,28.59
2022-08-03T10:35:41.279Z,28.97
2022-08-03T10:38:52.662Z,29.26
2022-08-03T10:42:02.472Z,29.18
2022-08-03T10:45:15.558Z,29.03
2022-08-03T10:48:22.376Z,29.00
2022-08-03T10:51:31.998Z,29.82
2022-08-03T10:55:00.259Z,29.87
2022-08-03T10:58:11.046Z,29.43
2022-08-03T11:01:19.092Z,29.79
2022-08-03T11:04:25.491Z,29.50
2022-08-03T11:07:30.986Z,29.79
2022-08-03T11:10:36.531Z,29.66
2022-08-03T11:13:58.813Z,29.60
2022-08-03T11:17:15.181Z,29.11
2022-08-03T11:20:47.486Z,29.69
2022-08-03T11:24:02.643Z,29.78
2022-08-03T11:27:19.006Z,29.59
2022-08-03T11:30:27.835Z,30.10
2022-08-03T11:33:34.538Z,30.13
2022-08-03T11:37:12.814Z,30.49
2022-08-03T11:40:40.402Z,30.76
2022-08-03T11:43:46.298Z,30.35
2022-08-03T11:46:51.630Z,30.95
2022-08-03T11:50:01.971Z,31.27
2022-08-03T11:53:08.392Z,31.58
2022-08-03T11:56:13.935Z,31.39
2022-08-03T11:59:22.037Z,31.64
2022-08-03T12:02:27.759Z,31.32
2022-08-03T12:05:51.428Z,31.07
2022-08-03T12:08:57.499Z,31.15
2022-08-03T12:12:02.865Z,31.51
2022-08-03T12:15:08.877Z,31.66
2022-08-03T12:18:16.200Z,31.87
2022-08-03T12:21:24.645Z,32.09
2022-08-03T12:24:41.695Z,32.11
2022-08-03T12:27:47.030Z,31.86
2022-08-03T12:30:54.933Z,31.81
2022-08-03T12:34:03.184Z,31.03
2022-08-03T12:37:22.045Z,31.60
2022-08-03T12:40:28.636Z,31.93
2022-08-03T12:43:36.655Z,32.15
2022-08-03T12:46:47.989Z,32.22
2022-08-03T12:49:54.710Z,32.38
2022-08-03T12:53:02.569Z,32.07
2022-08-03T12:56:08.052Z,31.46
2022-08-03T12:59:32.488Z,32.22
2022-08-03T13:02:40.988Z,32.06
2022-08-03T13:05:51.598Z,32.04
2022-08-03T13:09:06.327Z,32.53
2022-08-03T13:12:12.867Z,32.29
2022-08-03T13:15:18.611Z,32.13
2022-08-03T13:18:23.729Z,31.40
2022-08-03T13:21:28.589Z,31.88
2022-08-03T13:24:35.358Z,32.01
2022-08-03T13:28:04.930Z,31.67
2022-08-03T13:31:07.526Z,32.29
2022-08-03T13:34:12.421Z,33.21
2022-08-03T13:37:17.927Z,33.40
2022-08-03T13:40:30.326Z,34.15
2022-08-03T13:43:35.708Z,33.28
2022-08-03T13:46:41.311Z,32.78
2022-08-03T13:49:59.610Z,31.89
2022-08-03T13:53:06.961Z,32.02
2022-08-03T13:56:13.571Z,32.45
2022-08-03T13:59:18.540Z,32.11
2022-08-03T14:02:24.189Z,32.60
2022-08-03T14:05:32.231Z,32.12
2022-08-03T14:08:37.600Z,32.36
2022-08-03T14:12:06.946Z,31.77
2022-08-03T14:15:12.994Z,32.37
2022-08-03T14:18:27.688Z,32.62
2022-08-03T14:21:35.494Z,32.68
2022-08-03T14:24:40.934Z,32.67
2022-08-03T14:27:49.075Z,33.04
2022-08-03T14:30:55.808Z,32.98
2022-08-03T14:34:01.028Z,33.38
2022-08-03T14:37:06.234Z,32.76
2022-08-03T14:40:11.989Z,33.12
2022-08-03T14:43:20.311Z,33.36
2022-08-03T14:46:25.752Z,33.07
2022-08-03T14:50:31.187Z,33.21
2022-08-03T14:52:58.498Z,33.53
2022-08-03T14:56:07.960Z,33.10
2022-08-03T14:59:17.001Z,34.29
2022-08-03T15:02:23.760Z,34.46
2022-08-03T15:05:29.571Z,34.05
2022-08-03T15:08:35.094Z,34.86
2022-08-03T15:11:40.513Z,34.97
2022-08-03T15:14:47.540Z,35.29
2022-08-03T15:18:00.030Z,35.11
2022-08-03T15:21:07.564Z,35.65
2022-08-03T15:24:33.009Z,34.97
2022-08-03T15:28:03.305Z,34.53
2022-08-03T15:31:05.591Z,34.74
2022-08-03T15:34:12.031Z,35.08
2022-08-03T15:37:17.549Z,35.26
2022-08-03T15:40:23.163Z,35.69
2022-08-03T15:43:28.980Z,35.86
2022-08-03T15:46:35.730Z,35.77
2022-08-03T15:49:40.712Z,36.29
2022-08-03T15:52:45.691Z,35.25
2022-08-03T15:55:50.630Z,34.82
2022-08-03T15:59:09.945Z,35.91
2022-08-03T16:02:19.931Z,35.72
2022-08-03T16:05:25.638Z,36.21
2022-08-03T16:08:31.675Z,35.91
2022-08-03T16:11:37.406Z,36.85
2022-08-03T16:14:52.857Z,36.89
2022-08-03T16:17:59.724Z,37.09
2022-08-03T16:21:05.084Z,36.95
2022-08-03T16:24:17.357Z,37.58
2022-08-03T16:27:56.663Z,36.77
2022-08-03T16:30:51.639Z,36.78
2022-08-03T16:33:58.788Z,36.80
2022-08-03T16:37:35.338Z,35.86
2022-08-03T16:40:31.069Z,36.31
2022-08-03T16:43:36.299Z,36.11
2022-08-03T16:46:42.890Z,36.56
2022-08-03T16:49:55.432Z,36.57
2022-08-03T16:53:03.483Z,36.48
2022-08-03T16:56:10.737Z,36.70
2022-08-03T16:59:16.249Z,36.01
2022-08-03T17:02:26.167Z,37.09
2022-08-03T17:05:47.107Z,36.93
2022-08-03T17:08:55.476Z,35.64
2022-08-03T17:12:01.169Z,34.22
2022-08-03T17:15:10.668Z,33.13
2022-08-03T17:18:18.437Z,32.14
2022-08-03T17:21:33.810Z,31.79
2022-08-03T17:24:47.976Z,31.77
2022-08-03T17:28:49.099Z,31.12
2022-08-03T17:31:23.581Z,30.98
2022-08-03T17:34:38.133Z,30.79
2022-08-03T17:37:57.593Z,30.63
2022-08-03T17:41:10.972Z,30.46
2022-08-03T17:44:31.144Z,30.25
2022-08-03T17:47:43.646Z,30.07
2022-08-03T17:50:54.825Z,29.99
2022-08-03T17:54:18.103Z,29.96
2022-08-03T17:58:02.154Z,29.72
2022-08-03T18:02:02.014Z,29.56
2022-08-03T18:05:03.093Z,29.38
2022-08-03T18:08:26.840Z,29.26
2022-08-03T18:11:38.839Z,29.26
2022-08-03T18:14:57.571Z,29.22
2022-08-03T18:18:10.861Z,29.16
2022-08-03T18:21:17.481Z,29.22
2022-08-03T18:24:25.457Z,29.07
2022-08-03T18:27:42.525Z,28.87
2022-08-03T18:34:33.032Z,28.60
2022-08-03T18:37:52.180Z,28.61
2022-08-03T18:40:57.692Z,28.48
2022-08-03T18:44:08.066Z,28.49
2022-08-03T18:47:28.041Z,28.30
2022-08-03T18:50:58.505Z,28.14
2022-08-03T18:54:11.238Z,28.16
2022-08-03T18:57:42.638Z,27.99
2022-08-03T19:00:59.494Z,27.80
2022-08-03T19:04:10.268Z,27.79
2022-08-03T19:07:22.215Z,27.77
2022-08-03T19:10:35.231Z,27.62
2022-08-03T19:13:50.282Z,27.31
2022-08-03T19:17:06.224Z,27.08
2022-08-03T19:20:12.313Z,26.93
2022-08-03T19:23:24.014Z,26.82
2022-08-03T19:26:31.039Z,26.57
2022-08-03T19:29:59.778Z,26.43
2022-08-03T19:33:09.660Z,26.35
2022-08-03T19:36:16.018Z,26.24
2022-08-03T19:39:24.059Z,26.07
2022-08-03T19:42:35.285Z,26.00
2022-08-03T19:46:05.305Z,25.81
2022-08-03T19:49:16.251Z,25.71
2022-08-03T19:52:24.368Z,25.59
2022-08-03T19:55:48.871Z,25.52
2022-08-03T19:58:56.450Z,25.48
2022-08-03T20:02:06.098Z,25.42
2022-08-03T20:05:15.273Z,25.31
2022-08-03T20:08:23.089Z,25.24
2022-08-03T20:11:29.048Z,25.12
2022-08-03T20:14:34.586Z,24.98
2022-08-03T20:17:54.670Z,24.76
2022-08-03T20:21:14.994Z,24.42
2022-08-03T20:24:28.139Z,24.20
2022-08-03T20:28:06.668Z,24.03
2022-08-03T20:31:05.324Z,24.04
2022-08-03T20:34:11.702Z,24.07
2022-08-03T20:37:23.988Z,24.04
2022-08-03T20:40:33.760Z,24.02
2022-08-03T20:43:39.565Z,24.00
2022-08-03T20:46:53.470Z,23.88
2022-08-03T20:50:07.578Z,23.83
2022-08-03T20:53:15.031Z,23.80
2022-08-03T20:56:40.381Z,23.80
2022-08-03T20:59:55.007Z,23.77
2022-08-03T21:03:03.937Z,23.72
2022-08-03T21:06:15.342Z,23.65
2022-08-03T21:09:33.453Z,23.56
2022-08-03T21:12:45.560Z,23.53
2022-08-03T21:12:58.149Z,28.79
2022-08-03T21:16:07.017Z,23.51
2022-08-03T21:19:19.365Z,23.44
2022-08-03T21:22:30.110Z,23.37
2022-08-03T21:25:40.424Z,23.27
2022-08-03T21:28:50.196Z,23.25
2022-08-03T21:31:57.805Z,23.23
2022-08-03T21:35:03.484Z,23.21
2022-08-03T21:38:21.013Z,23.08
2022-08-03T21:41:38.293Z,23.02
2022-08-03T21:44:43.554Z,22.97
2022-08-03T21:47:49.434Z,22.97
2022-08-03T21:50:55.362Z,22.89
2022-08-03T21:54:04.639Z,22.85
2022-08-03T21:57:15.167Z,22.77
2022-08-03T22:00:23.231Z,22.72
2022-08-03T22:03:29.374Z,22.63
2022-08-03T22:06:34.820Z,22.61
2022-08-03T22:09:40.054Z,22.58
2022-08-03T22:12:57.332Z,22.54
2022-08-03T22:16:02.943Z,22.52
2022-08-03T22:19:08.327Z,22.50
2022-08-03T22:22:14.522Z,22.46
2022-08-03T22:25:22.607Z,22.40
2022-08-03T22:28:31.400Z,22.27
2022-08-03T22:31:58.222Z,22.19
2022-08-03T22:35:07.336Z,22.13
2022-08-03T22:41:19.527Z,21.86
2022-08-03T22:44:26.573Z,21.86
2022-08-03T22:47:35.472Z,21.83
2022-08-03T22:50:42.132Z,21.73
2022-08-03T22:53:47.359Z,21.70
2022-08-03T22:56:54.073Z,21.75
2022-08-03T23:00:00.884Z,21.70
2022-08-03T23:03:07.354Z,21.66
2022-08-03T23:06:13.031Z,21.60
2022-08-03T23:09:22.326Z,21.58
2022-08-03T23:12:29.532Z,21.59
2022-08-03T23:15:36.890Z,21.54
2022-08-03T23:18:43.470Z,21.49
2022-08-03T23:22:00.046Z,21.45
2022-08-03T23:25:09.382Z,21.45
2022-08-03T23:28:16.596Z,21.38
2022-08-03T23:31:24.175Z,21.27
2022-08-03T23:34:48.921Z,21.23
2022-08-03T23:38:05.284Z,21.20
2022-08-03T23:41:22.044Z,21.22
2022-08-03T23:44:30.639Z,21.18
2022-08-03T23:47:46.867Z,21.16
2022-08-03T23:50:58.830Z,21.16
2022-08-03T23:54:10.851Z,21.20
2022-08-03T23:57:24.168Z,21.21
